createdAt,value
2017-12-25T00:00:51.571Z,6.2
2017-12-25T00:01:51.552Z,6.26
2017-12-25T00:02:51.051Z,6.19
2017-12-25T00:03:51.313Z,6.2
2017-12-25T00:04:51.554Z,6.14
2017-12-25T00:05:51.048Z,6.17
2017-12-25T00:06:51.517Z,6.24
2017-12-25T00:07:51.538Z,6.17
2017-12-25T00:08:51.503Z,6.14
2017-12-25T00:09:51.501Z,6.22
2017-12-25T00:10:51.243Z,6.22
2017-12-25T00:11:51.486Z,6.27
2017-12-25T00:12:51.481Z,6.27
2017-12-25T00:13:51.470Z,6.2
2017-12-25T00:14:51.467Z,6.3
2017-12-25T00:15:51.467Z,6.27
2017-12-25T00:16:51.460Z,6.39
2017-12-25T00:17:51.445Z,6.24
2017-12-25T00:18:51.436Z,6.28
2017-12-25T00:19:51.428Z,6.36
2017-12-25T00:20:51.185Z,6.41
2017-12-25T00:21:51.475Z,6.38
2017-12-25T00:22:51.174Z,6.35
2017-12-25T00:23:51.409Z,6.38
2017-12-25T00:24:51.401Z,6.38
2017-12-25T00:25:51.403Z,6.38
2017-12-25T00:26:51.406Z,6.36
2017-12-25T00:27:51.378Z,6.33
2017-12-25T00:28:51.381Z,6.33
2017-12-25T00:29:51.390Z,6.36
2017-12-25T00:30:51.360Z,6.31
2017-12-25T00:31:51.106Z,6.36
2017-12-25T00:32:51.100Z,6.26
2017-12-25T00:33:51.382Z,6.36
2017-12-25T00:34:51.093Z,6.35
2017-12-25T00:35:51.357Z,6.35
2017-12-25T00:36:51.340Z,6.35
2017-12-25T00:37:51.350Z,6.44
2017-12-25T00:38:51.335Z,6.36
2017-12-25T00:39:51.310Z,6.39
2017-12-25T00:40:51.055Z,6.28
2017-12-25T00:41:51.347Z,6.24
2017-12-25T00:42:51.303Z,6.24
2017-12-25T00:43:51.028Z,6.35
2017-12-25T00:44:51.025Z,6.3
2017-12-25T00:45:51.294Z,6.26
2017-12-25T00:46:51.269Z,6.3
2017-12-25T00:47:51.254Z,6.24
2017-12-25T00:48:51.241Z,6.3
2017-12-25T00:49:51.236Z,6.24
2017-12-25T00:50:51.228Z,6.2
2017-12-25T00:51:51.224Z,6.2
2017-12-25T00:52:51.223Z,6.24
2017-12-25T00:53:51.215Z,6.33
2017-12-25T00:54:51.207Z,6.33
2017-12-25T00:55:51.209Z,6.27
2017-12-25T00:56:50.938Z,6.27
2017-12-25T00:57:51.182Z,6.26
2017-12-25T00:58:51.176Z,6.22
2017-12-25T00:59:51.179Z,6.3
2017-12-25T01:00:51.173Z,6.22
2017-12-25T01:01:50.909Z,6.27
2017-12-25T01:02:50.909Z,6.26
2017-12-25T01:03:51.146Z,6.27
2017-12-25T01:04:51.144Z,6.27
2017-12-25T01:05:51.134Z,6.27
2017-12-25T01:06:51.129Z,6.27
2017-12-25T01:07:51.132Z,6.3
2017-12-25T01:08:51.112Z,6.3
2017-12-25T01:09:51.110Z,6.2
2017-12-25T01:10:50.846Z,6.28
2017-12-25T01:11:50.846Z,6.24
2017-12-25T01:12:51.091Z,6.3
2017-12-25T01:13:51.078Z,6.22
2017-12-25T01:14:51.127Z,6.39
2017-12-25T01:15:51.074Z,6.42
2017-12-25T01:16:51.064Z,6.33
2017-12-25T01:17:50.798Z,6.27
2017-12-25T01:18:51.045Z,6.27
2017-12-25T01:19:51.045Z,6.26
2017-12-25T01:20:51.039Z,6.27
2017-12-25T01:21:51.022Z,6.26
2017-12-25T01:22:51.014Z,6.35
2017-12-25T01:23:50.758Z,6.3
2017-12-25T01:24:51.009Z,6.2
2017-12-25T01:25:51.006Z,6.26
2017-12-25T01:26:50.993Z,6.24
2017-12-25T01:27:50.736Z,6.36
2017-12-25T01:28:50.984Z,6.36
2017-12-25T01:29:50.970Z,6.28
2017-12-25T01:30:52.832Z,6.39
2017-12-25T01:31:50.965Z,6.35
2017-12-25T01:32:50.955Z,6.44
2017-12-25T01:33:50.943Z,6.42
2017-12-25T01:34:50.938Z,6.44
2017-12-25T01:35:50.684Z,6.42
2017-12-25T01:36:50.934Z,6.39
2017-12-25T01:37:50.927Z,6.44
2017-12-25T01:38:50.913Z,6.42
2017-12-25T01:39:50.905Z,6.38
2017-12-25T01:40:50.902Z,6.45
2017-12-25T01:41:50.897Z,6.38
2017-12-25T01:42:50.637Z,6.42
2017-12-25T01:43:50.909Z,6.39
2017-12-25T01:44:50.626Z,6.52
2017-12-25T01:45:51.020Z,6.45
2017-12-25T01:46:50.868Z,6.41
2017-12-25T01:47:50.866Z,6.46
2017-12-25T01:48:50.604Z,6.38
2017-12-25T01:49:50.592Z,6.31
2017-12-25T01:50:50.583Z,6.3
2017-12-25T01:51:50.833Z,6.39
2017-12-25T01:52:50.827Z,6.33
2017-12-25T01:53:50.818Z,6.26
2017-12-25T01:54:50.813Z,6.26
2017-12-25T01:55:50.811Z,6.27
2017-12-25T01:56:50.800Z,6.3
2017-12-25T01:57:50.549Z,6.27
2017-12-25T01:58:50.789Z,6.17
2017-12-25T01:59:50.534Z,6.2
2017-12-25T02:00:51.076Z,6.14
2017-12-25T02:01:50.771Z,6.04
2017-12-25T02:02:50.516Z,6.07
2017-12-25T02:03:50.760Z,6.09
2017-12-25T02:04:50.763Z,6.08
2017-12-25T02:05:50.743Z,5.98
2017-12-25T02:06:50.743Z,6.02
2017-12-25T02:07:50.492Z,6.01
2017-12-25T02:08:50.723Z,6.08
2017-12-25T02:09:50.711Z,5.94
2017-12-25T02:10:50.456Z,5.97
2017-12-25T02:11:50.706Z,5.93
2017-12-25T02:12:50.690Z,5.99
2017-12-25T02:13:50.707Z,5.98
2017-12-25T02:14:50.685Z,5.94
2017-12-25T02:15:51.676Z,5.98
2017-12-25T02:16:50.661Z,5.94
2017-12-25T02:17:50.653Z,5.93
2017-12-25T02:18:50.397Z,5.94
2017-12-25T02:19:50.396Z,6.02
2017-12-25T02:20:50.382Z,5.94
2017-12-25T02:21:50.643Z,5.89
2017-12-25T02:22:50.620Z,5.86
2017-12-25T02:23:50.621Z,5.98
2017-12-25T02:24:50.604Z,5.94
2017-12-25T02:25:50.601Z,5.93
2017-12-25T02:26:50.339Z,5.89
2017-12-25T02:27:50.335Z,5.89
2017-12-25T02:28:50.581Z,5.93
2017-12-25T02:29:50.069Z,5.9
2017-12-25T02:30:50.571Z,5.91
2017-12-25T02:31:50.569Z,5.97
2017-12-25T02:32:50.562Z,5.86
2017-12-25T02:33:50.559Z,5.89
2017-12-25T02:34:50.537Z,5.93
2017-12-25T02:35:50.529Z,5.93
2017-12-25T02:36:50.270Z,5.89
2017-12-25T02:37:50.521Z,5.91
2017-12-25T02:38:50.530Z,5.84
2017-12-25T02:39:50.509Z,5.98
2017-12-25T02:40:50.253Z,5.94
2017-12-25T02:41:50.545Z,5.89
2017-12-25T02:42:50.476Z,5.84
2017-12-25T02:43:50.479Z,5.84
2017-12-25T02:44:50.466Z,5.87
2017-12-25T02:45:50.510Z,5.82
2017-12-25T02:46:50.199Z,5.94
2017-12-25T02:47:50.446Z,5.97
2017-12-25T02:48:50.183Z,5.89
2017-12-25T02:49:50.430Z,5.89
2017-12-25T02:50:50.420Z,5.83
2017-12-25T02:51:50.170Z,5.82
2017-12-25T02:52:50.423Z,5.82
2017-12-25T02:53:50.155Z,5.83
2017-12-25T02:54:50.395Z,5.73
2017-12-25T02:55:50.134Z,5.86
2017-12-25T02:56:50.389Z,5.84
2017-12-25T02:57:50.382Z,5.91
2017-12-25T02:58:50.365Z,5.97
2017-12-25T02:59:50.367Z,5.86
2017-12-25T03:00:50.399Z,5.82
2017-12-25T03:01:50.091Z,5.87
2017-12-25T03:02:50.348Z,5.87
2017-12-25T03:03:50.335Z,5.93
2017-12-25T03:04:50.320Z,5.91
2017-12-25T03:05:50.323Z,5.87
2017-12-25T03:06:50.319Z,5.91
2017-12-25T03:07:50.062Z,5.94
2017-12-25T03:08:50.293Z,5.97
2017-12-25T03:09:50.281Z,5.99
2017-12-25T03:10:50.044Z,5.98
2017-12-25T03:11:50.017Z,5.94
2017-12-25T03:12:50.028Z,5.93
2017-12-25T03:13:50.259Z,5.87
2017-12-25T03:14:50.010Z,5.91
2017-12-25T03:15:50.005Z,5.91
2017-12-25T03:16:49.997Z,5.97
2017-12-25T03:17:50.228Z,5.91
2017-12-25T03:18:49.965Z,5.98
2017-12-25T03:19:50.210Z,5.91
2017-12-25T03:20:50.206Z,5.9
2017-12-25T03:21:50.204Z,5.9
2017-12-25T03:22:49.939Z,5.91
2017-12-25T03:23:50.192Z,6.01
2017-12-25T03:24:49.926Z,5.97
2017-12-25T03:25:50.173Z,5.98
2017-12-25T03:26:50.164Z,6.01
2017-12-25T03:27:49.905Z,5.97
2017-12-25T03:28:50.148Z,6.02
2017-12-25T03:29:50.141Z,5.94
2017-12-25T03:30:50.143Z,5.89
2017-12-25T03:31:49.879Z,5.83
2017-12-25T03:32:49.866Z,5.76
2017-12-25T03:33:50.114Z,5.75
2017-12-25T03:34:50.117Z,5.68
2017-12-25T03:35:49.846Z,5.64
2017-12-25T03:36:50.095Z,5.59
2017-12-25T03:37:49.832Z,5.56
2017-12-25T03:38:49.828Z,5.56
2017-12-25T03:39:49.822Z,5.61
2017-12-25T03:40:50.068Z,5.59
2017-12-25T03:41:50.068Z,5.64
2017-12-25T03:42:49.795Z,5.62
2017-12-25T03:43:49.790Z,5.62
2017-12-25T03:44:50.037Z,5.73
2017-12-25T03:45:49.780Z,5.83
2017-12-25T03:46:49.764Z,5.82
2017-12-25T03:47:50.008Z,5.83
2017-12-25T03:48:50.053Z,5.83
2017-12-25T03:49:50.004Z,5.93
2017-12-25T03:50:49.740Z,5.94
2017-12-25T03:51:49.739Z,5.89
2017-12-25T03:52:49.989Z,5.98
2017-12-25T03:53:49.974Z,5.91
2017-12-25T03:54:49.708Z,5.84
2017-12-25T03:55:49.948Z,5.89
2017-12-25T03:56:49.945Z,5.93
2017-12-25T03:57:49.935Z,5.84
2017-12-25T03:58:49.948Z,5.8
2017-12-25T03:59:49.686Z,5.72
2017-12-25T04:00:49.677Z,5.71
2017-12-25T04:01:49.910Z,5.69
2017-12-25T04:02:49.652Z,5.69
2017-12-25T04:03:49.893Z,5.62
2017-12-25T04:04:49.884Z,5.62
2017-12-25T04:05:49.881Z,5.71
2017-12-25T04:06:49.873Z,5.59
2017-12-25T04:07:49.863Z,5.62
2017-12-25T04:08:49.622Z,5.57
2017-12-25T04:09:49.594Z,5.57
2017-12-25T04:10:49.591Z,5.59
2017-12-25T04:11:49.845Z,5.47
2017-12-25T04:12:49.827Z,5.5
2017-12-25T04:13:49.824Z,5.46
2017-12-25T04:14:49.814Z,5.41
2017-12-25T04:15:49.811Z,5.36
2017-12-25T04:16:49.548Z,5.29
2017-12-25T04:17:49.786Z,5.28
2017-12-25T04:18:49.530Z,5.3
2017-12-25T04:19:49.823Z,5.41
2017-12-25T04:20:49.767Z,5.39
2017-12-25T04:21:49.753Z,5.38
2017-12-25T04:22:49.750Z,5.41
2017-12-25T04:23:49.754Z,5.46
2017-12-25T04:24:49.733Z,5.36
2017-12-25T04:25:49.731Z,5.44
2017-12-25T04:26:49.724Z,5.38
2017-12-25T04:27:49.713Z,5.33
2017-12-25T04:28:49.712Z,5.25
2017-12-25T04:29:49.700Z,5.28
2017-12-25T04:30:49.698Z,5.33
2017-12-25T04:31:50.787Z,5.43
2017-12-25T04:32:49.671Z,5.44
2017-12-25T04:33:49.666Z,5.48
2017-12-25T04:34:49.663Z,5.48
2017-12-25T04:35:49.662Z,5.57
2017-12-25T04:36:49.396Z,5.51
2017-12-25T04:37:49.386Z,5.54
2017-12-25T04:38:49.632Z,5.48
2017-12-25T04:39:49.615Z,5.46
2017-12-25T04:40:49.360Z,5.57
2017-12-25T04:41:49.361Z,5.56
2017-12-25T04:42:49.590Z,5.53
2017-12-25T04:43:49.588Z,5.54
2017-12-25T04:44:49.580Z,5.5
2017-12-25T04:45:49.328Z,5.59
2017-12-25T04:46:49.636Z,5.47
2017-12-25T04:47:49.565Z,5.5
2017-12-25T04:48:49.048Z,5.57
2017-12-25T04:49:49.557Z,5.61
2017-12-25T04:50:49.539Z,5.54
2017-12-25T04:51:49.286Z,5.56
2017-12-25T04:52:49.268Z,5.54
2017-12-25T04:53:49.258Z,5.51
2017-12-25T04:54:49.506Z,5.47
2017-12-25T04:55:49.241Z,5.48
2017-12-25T04:56:49.494Z,5.46
2017-12-25T04:57:49.482Z,5.38
2017-12-25T04:58:49.479Z,5.41
2017-12-25T04:59:49.472Z,5.39
2017-12-25T05:00:49.203Z,5.32
2017-12-25T05:01:49.446Z,5.29
2017-12-25T05:02:49.437Z,5.2
2017-12-25T05:03:49.430Z,5.14
2017-12-25T05:04:49.435Z,5.14
2017-12-25T05:05:49.417Z,5.12
2017-12-25T05:06:48.898Z,5.08
2017-12-25T05:07:49.407Z,5.12
2017-12-25T05:08:49.392Z,5.07
2017-12-25T05:09:49.129Z,5.11
2017-12-25T05:10:49.380Z,5.07
2017-12-25T05:11:49.377Z,5.12
2017-12-25T05:12:49.356Z,5.07
2017-12-25T05:13:49.356Z,5.1
2017-12-25T05:14:49.095Z,5.1
2017-12-25T05:15:49.084Z,5.08
2017-12-25T05:16:49.325Z,5.04
2017-12-25T05:17:49.315Z,4.97
2017-12-25T05:18:49.062Z,4.97
2017-12-25T05:19:49.059Z,4.97
2017-12-25T05:20:49.289Z,4.86
2017-12-25T05:21:49.290Z,4.99
2017-12-25T05:22:49.269Z,4.77
2017-12-25T05:23:49.012Z,4.84
2017-12-25T05:24:49.256Z,4.97
2017-12-25T05:25:49.044Z,5.02
2017-12-25T05:26:49.239Z,5.02
2017-12-25T05:27:49.232Z,5
2017-12-25T05:28:48.977Z,4.99
2017-12-25T05:29:49.224Z,4.86
2017-12-25T05:30:49.205Z,4.97
2017-12-25T05:31:49.198Z,5.05
2017-12-25T05:32:49.249Z,5.04
2017-12-25T05:33:49.191Z,5.07
2017-12-25T05:34:49.187Z,5.1
2017-12-25T05:35:49.166Z,5.08
2017-12-25T05:36:49.157Z,5.07
2017-12-25T05:37:49.156Z,5.04
2017-12-25T05:38:48.897Z,5
2017-12-25T05:39:49.139Z,5.05
2017-12-25T05:40:48.876Z,5.05
2017-12-25T05:41:48.868Z,5.05
2017-12-25T05:42:48.865Z,5
2017-12-25T05:43:49.146Z,4.94
2017-12-25T05:44:49.088Z,5.04
2017-12-25T05:45:48.840Z,5.08
2017-12-25T05:46:48.824Z,5.11
2017-12-25T05:47:48.814Z,5.14
2017-12-25T05:48:49.060Z,5.14
2017-12-25T05:49:49.055Z,5.14
2017-12-25T05:50:48.796Z,5.25
2017-12-25T05:51:49.051Z,5.11
2017-12-25T05:52:49.043Z,5.15
2017-12-25T05:53:49.016Z,5.12
2017-12-25T05:54:49.013Z,5.11
2017-12-25T05:55:48.749Z,5.12
2017-12-25T05:56:48.994Z,5.08
2017-12-25T05:57:48.994Z,5.05
2017-12-25T05:58:48.983Z,4.99
2017-12-25T05:59:48.978Z,4.99
2017-12-25T06:00:48.985Z,4.96
2017-12-25T06:01:48.971Z,4.96
2017-12-25T06:02:48.690Z,4.84
2017-12-25T06:03:48.939Z,4.89
2017-12-25T06:04:48.936Z,4.82
2017-12-25T06:05:48.978Z,4.93
2017-12-25T06:06:48.416Z,4.89
2017-12-25T06:07:48.912Z,4.97
2017-12-25T06:08:48.901Z,4.9
2017-12-25T06:09:48.634Z,4.99
2017-12-25T06:10:48.631Z,4.89
2017-12-25T06:11:48.882Z,4.86
2017-12-25T06:12:48.869Z,4.78
2017-12-25T06:13:48.851Z,4.86
2017-12-25T06:14:48.848Z,4.9
2017-12-25T06:15:48.590Z,4.92
2017-12-25T06:16:48.829Z,4.93
2017-12-25T06:17:48.832Z,4.89
2017-12-25T06:18:48.566Z,4.86
2017-12-25T06:19:48.813Z,4.8
2017-12-25T06:20:48.542Z,4.93
2017-12-25T06:21:48.542Z,4.94
2017-12-25T06:22:48.783Z,4.96
2017-12-25T06:23:48.786Z,5
2017-12-25T06:24:48.763Z,5.05
2017-12-25T06:25:48.755Z,5
2017-12-25T06:26:48.744Z,5.08
2017-12-25T06:27:48.744Z,5.05
2017-12-25T06:28:48.734Z,5
2017-12-25T06:29:48.723Z,5.04
2017-12-25T06:30:48.466Z,5.05
2017-12-25T06:31:48.703Z,5.05
2017-12-25T06:32:48.692Z,5.04
2017-12-25T06:33:48.443Z,4.94
2017-12-25T06:34:48.686Z,4.87
2017-12-25T06:35:48.725Z,4.86
2017-12-25T06:36:48.679Z,4.89
2017-12-25T06:37:48.657Z,4.92
2017-12-25T06:38:48.651Z,4.89
2017-12-25T06:39:48.390Z,4.92
2017-12-25T06:40:48.636Z,5.02
2017-12-25T06:41:48.375Z,5.07
2017-12-25T06:42:48.621Z,5.04
2017-12-25T06:43:48.607Z,5.02
2017-12-25T06:44:48.354Z,4.97
2017-12-25T06:45:48.340Z,4.96
2017-12-25T06:46:48.587Z,4.93
2017-12-25T06:47:48.614Z,4.93
2017-12-25T06:48:48.580Z,4.89
2017-12-25T06:49:48.561Z,4.9
2017-12-25T06:50:48.314Z,4.78
2017-12-25T06:51:48.299Z,4.77
2017-12-25T06:52:48.548Z,4.87
2017-12-25T06:53:48.529Z,4.71
2017-12-25T06:54:48.523Z,4.71
2017-12-25T06:55:48.509Z,4.71
2017-12-25T06:56:48.509Z,4.55
2017-12-25T06:57:49.292Z,4.66
2017-12-25T06:58:48.490Z,4.63
2017-12-25T06:59:48.476Z,4.62
2017-12-25T07:00:48.229Z,4.59
2017-12-25T07:01:48.460Z,4.66
2017-12-25T07:02:48.600Z,4.56
2017-12-25T07:03:48.446Z,4.63
2017-12-25T07:04:48.436Z,4.63
2017-12-25T07:05:48.431Z,4.63
2017-12-25T07:06:48.427Z,4.6
2017-12-25T07:07:48.417Z,4.66
2017-12-25T07:08:48.400Z,4.73
2017-12-25T07:09:48.393Z,4.71
2017-12-25T07:10:48.386Z,4.6
2017-12-25T07:11:48.385Z,4.67
2017-12-25T07:12:48.374Z,4.6
2017-12-25T07:13:48.367Z,4.66
2017-12-25T07:14:48.099Z,4.49
2017-12-25T07:15:48.344Z,4.59
2017-12-25T07:16:48.081Z,4.55
2017-12-25T07:17:48.334Z,4.53
2017-12-25T07:18:48.322Z,4.6
2017-12-25T07:19:48.328Z,4.63
2017-12-25T07:20:48.309Z,4.59
2017-12-25T07:21:48.313Z,4.63
2017-12-25T07:22:48.313Z,4.62
2017-12-25T07:23:48.276Z,4.6
2017-12-25T07:24:48.267Z,4.6
2017-12-25T07:25:48.265Z,4.74
2017-12-25T07:26:48.246Z,4.73
2017-12-25T07:27:47.991Z,4.77
2017-12-25T07:28:48.230Z,4.62
2017-12-25T07:29:47.978Z,4.77
2017-12-25T07:30:47.968Z,4.74
2017-12-25T07:31:48.204Z,4.67
2017-12-25T07:32:48.199Z,4.66
2017-12-25T07:33:47.685Z,4.59
2017-12-25T07:34:48.188Z,4.68
2017-12-25T07:35:48.176Z,4.7
2017-12-25T07:36:48.166Z,4.73
2017-12-25T07:37:48.156Z,4.73
2017-12-25T07:38:48.145Z,4.71
2017-12-25T07:39:48.137Z,4.68
2017-12-25T07:40:48.140Z,4.74
2017-12-25T07:41:47.887Z,4.75
2017-12-25T07:42:48.130Z,4.77
2017-12-25T07:43:48.107Z,4.7
2017-12-25T07:44:48.099Z,4.78
2017-12-25T07:45:48.100Z,4.75
2017-12-25T07:46:48.083Z,4.8
2017-12-25T07:47:47.820Z,4.84
2017-12-25T07:48:47.809Z,4.92
2017-12-25T07:49:48.058Z,4.9
2017-12-25T07:50:48.058Z,4.96
2017-12-25T07:51:48.047Z,4.84
2017-12-25T07:52:47.791Z,4.87
2017-12-25T07:53:48.027Z,4.82
2017-12-25T07:54:48.056Z,4.77
2017-12-25T07:55:48.009Z,4.77
2017-12-25T07:56:47.997Z,4.74
2017-12-25T07:57:47.987Z,4.84
2017-12-25T07:58:47.985Z,4.87
2017-12-25T07:59:47.976Z,4.87
2017-12-25T08:00:47.964Z,4.84
2017-12-25T08:01:47.955Z,4.77
2017-12-25T08:02:47.954Z,4.74
2017-12-25T08:03:47.837Z,4.73
2017-12-25T08:04:47.683Z,4.73
2017-12-25T08:05:47.933Z,4.74
2017-12-25T08:06:47.922Z,4.77
2017-12-25T08:07:47.913Z,4.86
2017-12-25T08:08:47.908Z,4.9
2017-12-25T08:09:47.638Z,4.86
2017-12-25T08:10:47.889Z,4.8
2017-12-25T08:11:47.880Z,4.9
2017-12-25T08:12:47.865Z,4.87
2017-12-25T08:13:47.868Z,4.87
2017-12-25T08:14:47.596Z,4.86
2017-12-25T08:15:47.843Z,4.78
2017-12-25T08:16:47.581Z,4.8
2017-12-25T08:17:47.825Z,4.87
2017-12-25T08:18:47.870Z,4.8
2017-12-25T08:19:47.565Z,4.92
2017-12-25T08:20:47.805Z,4.99
2017-12-25T08:21:47.543Z,4.96
2017-12-25T08:22:47.799Z,4.8
2017-12-25T08:23:47.799Z,4.92
2017-12-25T08:24:47.771Z,4.89
2017-12-25T08:25:47.772Z,4.84
2017-12-25T08:26:47.249Z,4.84
2017-12-25T08:27:47.494Z,4.9
2017-12-25T08:28:47.736Z,4.84
2017-12-25T08:29:47.482Z,4.96
2017-12-25T08:30:47.729Z,4.94
2017-12-25T08:31:47.210Z,4.89
2017-12-25T08:32:47.449Z,4.97
2017-12-25T08:33:47.700Z,5.05
2017-12-25T08:34:47.690Z,5.05
2017-12-25T08:35:47.735Z,4.96
2017-12-25T08:37:47.667Z,5
2017-12-25T08:38:47.664Z,5.02
2017-12-25T08:39:47.663Z,5.05
2017-12-25T08:40:47.639Z,5.1
2017-12-25T08:41:47.635Z,5.07
2017-12-25T08:42:47.378Z,4.99
2017-12-25T08:43:47.672Z,4.99
2017-12-25T08:44:47.378Z,4.9
2017-12-25T08:45:47.352Z,4.86
2017-12-25T08:46:47.592Z,4.82
2017-12-25T08:47:47.602Z,4.86
2017-12-25T08:48:47.582Z,4.87
2017-12-25T08:49:47.599Z,4.86
2017-12-25T08:50:47.562Z,4.89
2017-12-25T08:51:47.300Z,4.82
2017-12-25T08:52:47.040Z,4.9
2017-12-25T08:53:47.547Z,4.92
2017-12-25T08:54:47.536Z,4.9
2017-12-25T08:55:47.269Z,4.87
2017-12-25T08:56:47.514Z,4.93
2017-12-25T08:57:47.504Z,4.94
2017-12-25T08:58:47.257Z,4.94
2017-12-25T08:59:47.490Z,4.84
2017-12-25T09:00:47.229Z,4.94
2017-12-25T09:01:47.263Z,4.89
2017-12-25T09:02:47.467Z,4.8
2017-12-25T09:03:48.282Z,4.8
2017-12-25T09:04:47.454Z,4.87
2017-12-25T09:05:47.200Z,4.93
2017-12-25T09:06:47.433Z,4.92
2017-12-25T09:07:47.456Z,4.82
2017-12-25T09:08:47.433Z,4.86
2017-12-25T09:09:47.413Z,4.89
2017-12-25T09:10:47.407Z,4.96
2017-12-25T09:11:47.398Z,4.86
2017-12-25T09:12:47.142Z,4.93
2017-12-25T09:13:47.381Z,4.89
2017-12-25T09:14:47.377Z,4.94
2017-12-25T09:15:47.376Z,4.93
2017-12-25T09:16:47.113Z,5.02
2017-12-25T09:17:47.354Z,5.05
2017-12-25T09:18:47.349Z,5.1
2017-12-25T09:19:47.090Z,5.12
2017-12-25T09:20:47.085Z,5.26
2017-12-25T09:21:47.322Z,5.3
2017-12-25T09:22:47.069Z,5.3
2017-12-25T09:23:47.317Z,5.32
2017-12-25T09:24:46.792Z,5.28
2017-12-25T09:25:47.303Z,5.33
2017-12-25T09:26:47.289Z,5.3
2017-12-25T09:27:47.295Z,5.35
2017-12-25T09:28:47.017Z,5.28
2017-12-25T09:29:47.008Z,5.26
2017-12-25T09:30:47.338Z,5.33
2017-12-25T09:31:47.255Z,5.41
2017-12-25T09:32:46.986Z,5.5
2017-12-25T09:33:47.245Z,5.51
2017-12-25T09:34:47.226Z,5.46
2017-12-25T09:35:47.225Z,5.54
2017-12-25T09:36:46.965Z,5.51
2017-12-25T09:37:46.967Z,5.5
2017-12-25T09:38:47.209Z,5.47
2017-12-25T09:39:47.200Z,5.39
2017-12-25T09:40:47.190Z,5.26
2017-12-25T09:41:47.185Z,5.12
2017-12-25T09:42:47.175Z,5.1
2017-12-25T09:43:47.159Z,5.04
2017-12-25T09:44:47.157Z,4.87
2017-12-25T09:45:47.145Z,4.86
2017-12-25T09:46:47.151Z,4.89
2017-12-25T09:47:47.131Z,4.93
2017-12-25T09:48:46.624Z,5
2017-12-25T09:49:47.132Z,4.99
2017-12-25T09:50:47.117Z,4.89
2017-12-25T09:51:47.099Z,4.9
2017-12-25T09:52:47.096Z,4.93
2017-12-25T09:53:47.098Z,4.96
2017-12-25T09:54:47.076Z,5.07
2017-12-25T09:55:47.078Z,5.1
2017-12-25T09:56:47.078Z,5.17
2017-12-25T09:57:46.563Z,5.25
2017-12-25T09:58:47.056Z,5.29
2017-12-25T09:59:46.789Z,5.29
2017-12-25T10:00:47.038Z,5.33
2017-12-25T10:01:46.776Z,5.48
2017-12-25T10:02:46.520Z,5.46
2017-12-25T10:03:47.010Z,5.51
2017-12-25T10:04:47.004Z,5.5
2017-12-25T10:05:47.002Z,5.48
2017-12-25T10:06:47.001Z,5.53
2017-12-25T10:07:46.739Z,5.5
2017-12-25T10:08:46.981Z,5.53
2017-12-25T10:09:46.984Z,5.57
2017-12-25T10:10:46.983Z,5.47
2017-12-25T10:11:46.957Z,5.46
2017-12-25T10:12:46.953Z,5.47
2017-12-25T10:13:47.006Z,5.57
2017-12-25T10:14:46.942Z,5.54
2017-12-25T10:15:46.935Z,5.54
2017-12-25T10:16:46.667Z,5.53
2017-12-25T10:17:46.912Z,5.46
2017-12-25T10:18:46.910Z,5.47
2017-12-25T10:19:46.390Z,5.48
2017-12-25T10:20:46.657Z,5.56
2017-12-25T10:21:46.632Z,5.57
2017-12-25T10:22:46.625Z,5.54
2017-12-25T10:52:29.776Z,5.65
2017-12-25T10:53:27.303Z,5.71
2017-12-25T10:54:27.296Z,5.71
2017-12-25T10:55:27.080Z,5.73
2017-12-25T10:56:27.262Z,5.79
2017-12-25T10:57:27.008Z,5.76
2017-12-25T10:58:27.252Z,5.75
2017-12-25T10:59:27.232Z,5.65
2017-12-25T11:00:27.217Z,5.66
2017-12-25T11:01:27.219Z,5.69
2017-12-25T11:02:26.954Z,5.65
2017-12-25T11:03:26.935Z,5.56
2017-12-25T11:04:26.928Z,5.59
2017-12-25T11:05:27.172Z,5.53
2017-12-25T11:06:27.163Z,5.54
2017-12-25T11:07:26.907Z,5.5
2017-12-25T11:08:27.146Z,5.59
2017-12-25T11:09:27.134Z,5.59
2017-12-25T11:10:26.882Z,5.71
2017-12-25T11:11:26.878Z,5.84
2017-12-25T11:12:26.864Z,5.84
2017-12-25T11:13:27.104Z,5.98
2017-12-25T11:14:26.846Z,5.93
2017-12-25T11:15:27.098Z,5.89
2017-12-25T11:16:26.842Z,5.86
2017-12-25T11:17:27.072Z,5.98
2017-12-25T11:18:26.817Z,5.9
2017-12-25T11:19:27.063Z,5.93
2017-12-25T11:20:27.057Z,5.93
2017-12-25T11:21:26.817Z,5.9
2017-12-25T11:22:27.045Z,5.89
2017-12-25T11:23:27.033Z,5.93
2017-12-25T11:24:26.529Z,5.91
2017-12-25T11:25:27.029Z,5.9
2017-12-25T11:26:26.769Z,5.94
2017-12-25T11:27:27.028Z,5.98
2017-12-25T11:28:27.004Z,5.97
2017-12-25T11:29:26.989Z,6.02
2017-12-25T11:30:26.988Z,5.98
2017-12-25T11:31:26.990Z,6.08
2017-12-25T11:32:26.736Z,6.12
2017-12-25T11:33:26.976Z,6.11
2017-12-25T11:34:26.972Z,6.14
2017-12-25T11:35:26.716Z,6.26
2017-12-25T11:36:26.948Z,6.26
2017-12-25T11:37:26.954Z,6.2
2017-12-25T11:38:26.936Z,6.31
2017-12-25T11:39:26.681Z,6.28
2017-12-25T11:40:26.936Z,6.3
2017-12-25T11:41:26.669Z,6.36
2017-12-25T11:42:26.657Z,6.35
2017-12-25T11:43:26.896Z,6.46
2017-12-25T11:44:26.898Z,6.42
2017-12-25T11:45:26.893Z,6.42
2017-12-25T11:46:26.883Z,6.46
2017-12-25T11:47:26.884Z,6.56
2017-12-25T11:48:26.631Z,6.52
2017-12-25T11:49:26.870Z,6.46
2017-12-25T11:50:26.858Z,6.28
2017-12-25T11:51:26.596Z,6.41
2017-12-25T11:52:26.841Z,6.42
2017-12-25T11:53:26.633Z,6.41
2017-12-25T11:54:26.836Z,6.39
2017-12-25T11:55:26.584Z,6.39
2017-12-25T11:56:26.575Z,6.36
2017-12-25T11:57:26.840Z,6.46
2017-12-25T11:58:26.549Z,6.42
2017-12-25T11:59:26.806Z,6.42
2017-12-25T12:00:26.802Z,6.31
2017-12-25T12:01:26.795Z,6.36
2017-12-25T12:02:26.526Z,6.49
2017-12-25T12:03:26.780Z,6.44
2017-12-25T12:04:26.537Z,6.46
2017-12-25T12:05:26.503Z,6.54
2017-12-25T12:06:26.779Z,6.56
2017-12-25T12:07:29.650Z,6.46
2017-12-25T12:08:26.509Z,6.59
2017-12-25T12:09:26.752Z,6.52
2017-12-25T12:10:26.739Z,6.63
2017-12-25T12:11:26.478Z,6.62
2017-12-25T12:12:26.732Z,6.67
2017-12-25T12:13:26.702Z,6.74
2017-12-25T12:14:26.441Z,6.66
2017-12-25T12:15:26.743Z,6.77
2017-12-25T12:16:26.432Z,6.7
2017-12-25T12:17:26.677Z,6.85
2017-12-25T12:18:26.679Z,6.84
2017-12-25T12:19:26.668Z,6.84
2017-12-25T12:20:26.659Z,6.82
2017-12-25T12:21:26.701Z,6.87
2017-12-25T12:22:26.404Z,6.82
2017-12-25T12:23:26.642Z,6.88
2017-12-25T12:24:26.631Z,6.88
2017-12-25T12:25:26.623Z,6.87
2017-12-25T12:26:26.370Z,6.82
2017-12-25T12:27:26.614Z,6.81
2017-12-25T12:28:26.608Z,6.88
2017-12-25T12:29:26.612Z,6.93
2017-12-25T12:30:26.346Z,6.78
2017-12-25T12:31:26.593Z,6.82
2017-12-25T12:32:26.583Z,6.84
2017-12-25T12:33:26.325Z,6.88
2017-12-25T12:34:26.575Z,6.88
2017-12-25T12:35:26.564Z,6.87
2017-12-25T12:36:26.323Z,6.87
2017-12-25T12:37:26.558Z,6.99
2017-12-25T12:38:26.560Z,6.99
2017-12-25T12:39:26.545Z,7.03
2017-12-25T12:40:26.538Z,7.06
2017-12-25T12:41:26.530Z,7.07
2017-12-25T12:42:26.525Z,7.1
2017-12-25T12:43:26.521Z,7.06
2017-12-25T12:44:26.575Z,7
2017-12-25T12:45:26.512Z,7.11
2017-12-25T12:46:26.541Z,7.05
2017-12-25T12:47:26.244Z,7.14
2017-12-25T12:48:26.500Z,7.13
2017-12-25T12:49:26.484Z,7.11
2017-12-25T12:50:26.488Z,7.17
2017-12-25T12:51:26.228Z,7.15
2017-12-25T12:52:26.211Z,7.24
2017-12-25T12:53:26.464Z,7.31
2017-12-25T12:54:26.462Z,7.21
2017-12-25T12:55:26.453Z,7.21
2017-12-25T12:56:26.190Z,7.32
2017-12-25T12:57:26.436Z,7.35
2017-12-25T12:58:26.430Z,7.29
2017-12-25T12:59:26.431Z,7.25
2017-12-25T13:00:26.503Z,7.25
2017-12-25T13:01:26.410Z,7.24
2017-12-25T13:02:25.919Z,7.31
2017-12-25T13:03:26.408Z,7.23
2017-12-25T13:04:26.417Z,7.25
2017-12-25T13:05:26.399Z,7.29
2017-12-25T13:06:26.383Z,7.28
2017-12-25T13:07:26.126Z,7.29
2017-12-25T13:08:26.380Z,7.25
2017-12-25T13:09:26.368Z,7.29
2017-12-25T13:10:26.104Z,7.31
2017-12-25T13:11:26.360Z,7.17
2017-12-25T13:12:26.116Z,7.15
2017-12-25T13:13:26.349Z,7.17
2017-12-25T13:14:26.365Z,7.25
2017-12-25T13:15:26.110Z,7.24
2017-12-25T13:16:26.327Z,7.29
2017-12-25T13:17:26.087Z,7.25
2017-12-25T13:18:26.325Z,7.23
2017-12-25T13:19:26.335Z,7.21
2017-12-25T13:20:26.316Z,7.28
2017-12-25T13:21:26.054Z,7.29
2017-12-25T13:22:26.302Z,7.21
2017-12-25T13:23:26.322Z,7.17
2017-12-25T13:24:26.301Z,7.18
2017-12-25T13:25:26.034Z,7.2
2017-12-25T13:26:26.026Z,7.18
2017-12-25T13:27:26.273Z,7.1
2017-12-25T13:28:26.267Z,7.15
2017-12-25T13:29:26.276Z,7.11
2017-12-25T13:30:26.000Z,7.15
2017-12-25T13:31:26.254Z,7.06
2017-12-25T13:32:25.990Z,7.05
2017-12-25T13:33:26.231Z,7.03
2017-12-25T13:34:26.231Z,6.97
2017-12-25T13:35:26.220Z,6.99
2017-12-25T13:36:25.962Z,6.88
2017-12-25T13:37:25.959Z,6.88
2017-12-25T13:38:25.701Z,6.85
2017-12-25T13:39:26.200Z,6.79
2017-12-25T13:40:25.940Z,6.81
2017-12-25T13:41:25.952Z,6.82
2017-12-25T13:42:25.925Z,6.77
2017-12-25T13:43:26.170Z,6.67
2017-12-25T13:44:26.271Z,6.75
2017-12-25T13:45:25.962Z,6.63
2017-12-25T13:46:26.160Z,6.62
2017-12-25T13:47:26.149Z,6.54
2017-12-25T13:48:26.154Z,6.54
2017-12-25T13:49:26.147Z,6.51
2017-12-25T13:50:26.140Z,6.59
2017-12-25T13:51:26.143Z,6.49
2017-12-25T13:52:26.142Z,6.44